Date,TemperatureHighF,TemperatureAvgF,TemperatureLowF,DewpointHighF,DewpointAvgF,DewpointLowF,HumidityHigh,HumidityAvg,HumidityLow,PressureMaxIn,PressureMinIn,WindSpeedMaxMPH,WindSpeedAvgMPH,GustSpeedMaxMPH,PrecipitationSumIn
2013-1-5,32.8,32.1,31.4,30.4,29.9,29.3,94,91,87,30.10,30.05,10,2,10,0.01
2013-1-6,34.2,32.4,29.2,31.5,28.8,25.3,91,87,78,30.33,29.94,16,2,16,0.01
2013-1-7,35.9,27.6,17.1,27.3,23.0,15.6,95,83,67,30.41,30.18,19,2,19,0.00
2013-1-8,41.4,29.4,21.3,30.2,24.6,19.1,95,83,63,30.26,30.19,8,1,8,0.03
2013-1-18,36.6,28.7,19.3,27.4,21.0,15.2,85,73,65,30.44,30.02,7,3,21,0.00
2013-1-19,48.3,40.6,33.7,36.8,32.7,27.7,83,73,61,30.02,29.72,10,2,23,0.04
2013-1-20,39.9,21.0,17.2,31.6,13.8,10.7,85,74,56,30.26,29.74,11,5,27,0.00
2013-1-21,18.8,13.1,8.0,11.5,8.6,5.4,90,82,70,30.23,30.11,7,4,16,0.00
2013-1-22,12.8,6.4,0.4,8.4,2.9,-2.5,89,85,74,30.39,30.23,4,2,10,0.00
2013-1-23,19.9,13.0,6.3,15.9,8.0,3.6,92,80,63,30.37,30.13,2,1,9,0.00
2013-1-24,19.3,14.1,1.0,12.8,3.8,-1.7,90,64,49,30.67,30.23,8,1,8,0.00
2013-1-25,25.6,20.3,15.6,20.8,14.7,4.6,90,79,61,30.50,30.04,10,2,10,0.00
2013-1-26,30.4,23.8,16.8,22.1,19.1,14.5,92,82,67,30.47,30.10,8,1,8,0.00
2013-1-27,32.7,26.0,16.9,30.9,21.5,14.7,93,83,72,30.48,30.06,16,4,16,0.01
2013-1-28,47.1,40.1,32.7,46.6,39.4,31.2,98,97,94,30.08,29.90,11,1,11,0.37
2013-1-29,56.5,52.2,37.3,55.9,51.8,36.8,99,99,98,29.96,29.38,21,4,21,2.15
2013-1-30,52.6,44.2,26.6,52.0,43.5,25.3,99,97,90,29.46,29.14,19,2,19,1.03
2013-1-31,26.6,17.7,11.9,25.9,15.2,9.9,97,90,79,30.04,29.46,22,5,22,0.00
2013-2-1,15.6,8.6,3.8,10.0,4.9,1.4,92,85,69,30.38,30.04,11,2,13,0.00
2013-2-2,25.9,17.5,5.9,22.2,14.3,3.6,93,87,75,30.28,30.00,12,1,12,0.00
2013-2-3,21.1,16.7,12.3,18.6,12.9,8.6,91,85,79,30.08,29.97,15,1,15,0.00
2013-2-4,25.7,21.2,17.6,22.3,18.7,14.1,94,90,83,30.08,29.88,8,1,8,0.00
2013-2-5,32.2,22.7,9.8,27.3,20.1,8.2,95,90,73,30.04,29.84,11,1,11,0.00
2013-2-6,38.9,28.2,16.2,25.8,21.7,14.2,95,78,53,30.29,30.04,10,1,10,0.19
2013-6-10,74.0,69.0,63.5,69.0,65.7,61.5,98,89,79,29.82,29.71,11,1,11,0.91
2013-6-11,88.5,71.2,60.3,70.7,64.3,59.2,98,81,51,29.92,29.79,11,0,11,0.00
2013-6-12,66.8,66.0,65.1,64.4,63.8,63.2,95,93,90,29.85,29.80,0,0,0,0.00
2013-6-13,76.3,68.2,56.0,63.2,57.7,53.3,98,71,53,29.96,29.50,18,3,18,0.10
2013-6-14,80.5,65.3,52.9,63.3,57.2,51.8,97,77,42,30.09,29.95,14,1,14,0.00
2013-6-15,78.9,64.9,54.7,66.4,61.1,53.9,98,88,62,30.07,29.88,11,0,11,0.12
2013-6-16,83.1,72.3,63.3,69.5,64.6,58.1,97,79,47,29.89,29.83,11,1,11,0.15
2013-6-17,87.5,74.0,61.2,69.5,62.1,55.4,98,71,35,29.91,29.82,12,1,12,0.11
2013-6-18,75.3,66.3,60.1,64.0,59.4,49.5,97,80,58,30.03,29.84,12,2,12,0.05
2013-6-19,80.3,64.4,49.6,56.6,50.1,45.4,87,62,35,30.15,30.02,9,1,9,0.00
2013-6-20,86.7,69.8,53.3,66.6,58.1,50.7,95,70,40,30.17,30.09,8,0,8,0.00
2013-6-21,88.6,74.5,62.1,68.2,65.0,60.8,96,75,43,30.15,29.95,13,1,13,0.00
2013-6-22,87.6,75.0,64.9,76.2,69.5,63.3,96,84,63,30.06,29.94,7,0,7,0.00
2013-6-23,91.3,77.4,64.1,73.1,68.3,62.9,97,76,49,30.05,29.93,10,1,10,0.00
2013-6-24,88.2,76.6,66.4,73.0,68.9,64.1,98,79,53,30.04,29.90,20,1,20,0.07